sensor_id;sensor_type;location;lat;lon;timestamp;pressure;altitude;pressure_sealevel;temperature;humidity
63405;BME280;49541;57.840;12.306;2023-04-04T00:00:32;102233.25;;;1.77;63.90
63405;BME280;49541;57.840;12.306;2023-04-04T00:05:32;102231.22;;;2.24;61.67
63405;BME280;49541;57.840;12.306;2023-04-04T00:10:34;102229.97;;;2.04;62.71
63405;BME280;49541;57.840;12.306;2023-04-04T00:15:34;102223.59;;;1.40;64.86
63405;BME280;49541;57.840;12.306;2023-04-04T00:20:35;102220.53;;;1.19;65.28
63405;BME280;49541;57.840;12.306;2023-04-04T00:25:36;102203.31;;;1.82;63.37
63405;BME280;49541;57.840;12.306;2023-04-04T00:30:37;102203.81;;;1.98;63.10
63405;BME280;49541;57.840;12.306;2023-04-04T00:35:38;102193.28;;;1.64;63.89
63405;BME280;49541;57.840;12.306;2023-04-04T00:40:46;102188.19;;;1.56;64.47
63405;BME280;49541;57.840;12.306;2023-04-04T00:45:48;102185.19;;;1.36;64.73
63405;BME280;49541;57.840;12.306;2023-04-04T00:50:50;102184.50;;;1.28;65.63
63405;BME280;49541;57.840;12.306;2023-04-04T00:55:51;102187.63;;;1.05;66.52
63405;BME280;49541;57.840;12.306;2023-04-04T01:00:51;102179.53;;;1.15;67.00
63405;BME280;49541;57.840;12.306;2023-04-04T01:05:52;102164.72;;;1.13;66.72
63405;BME280;49541;57.840;12.306;2023-04-04T01:10:56;102169.09;;;1.12;67.27
63405;BME280;49541;57.840;12.306;2023-04-04T01:15:56;102156.59;;;1.23;67.09
63405;BME280;49541;57.840;12.306;2023-04-04T01:20:59;102165.06;;;0.97;67.39
63405;BME280;49541;57.840;12.306;2023-04-04T01:26:03;102154.00;;;0.81;68.22
63405;BME280;49541;57.840;12.306;2023-04-04T01:31:05;102156.84;;;0.72;68.94
63405;BME280;49541;57.840;12.306;2023-04-04T01:36:14;102153.03;;;0.87;67.98
63405;BME280;49541;57.840;12.306;2023-04-04T01:41:16;102159.00;;;0.94;68.39
63405;BME280;49541;57.840;12.306;2023-04-04T01:46:17;102150.56;;;0.79;68.82
63405;BME280;49541;57.840;12.306;2023-04-04T01:51:17;102145.91;;;0.07;71.62
63405;BME280;49541;57.840;12.306;2023-04-04T01:56:18;102139.25;;;-0.13;74.35
63405;BME280;49541;57.840;12.306;2023-04-04T02:01:18;102139.72;;;0.09;75.30
63405;BME280;49541;57.840;12.306;2023-04-04T02:06:19;102137.38;;;0.40;74.82
63405;BME280;49541;57.840;12.306;2023-04-04T02:11:19;102140.13;;;0.78;73.19
63405;BME280;49541;57.840;12.306;2023-04-04T02:16:21;102135.66;;;0.81;72.62
63405;BME280;49541;57.840;12.306;2023-04-04T02:21:22;102136.13;;;0.99;71.68
63405;BME280;49541;57.840;12.306;2023-04-04T02:26:24;102126.69;;;1.31;69.40
63405;BME280;49541;57.840;12.306;2023-04-04T02:31:25;102124.59;;;2.45;63.57
63405;BME280;49541;57.840;12.306;2023-04-04T02:36:26;102114.84;;;2.49;62.69
63405;BME280;49541;57.840;12.306;2023-04-04T02:41:26;102114.59;;;2.27;63.24
63405;BME280;49541;57.840;12.306;2023-04-04T02:46:26;102098.84;;;2.27;63.12
63405;BME280;49541;57.840;12.306;2023-04-04T02:51:27;102086.84;;;1.85;63.90
63405;BME280;49541;57.840;12.306;2023-04-04T02:56:27;102089.31;;;1.21;66.61
63405;BME280;49541;57.840;12.306;2023-04-04T03:01:27;102089.75;;;1.74;65.62
63405;BME280;49541;57.840;12.306;2023-04-04T03:06:30;102079.50;;;1.63;65.55
63405;BME280;49541;57.840;12.306;2023-04-04T03:11:30;102079.78;;;1.17;66.34
63405;BME280;49541;57.840;12.306;2023-04-04T03:16:30;102068.34;;;1.19;67.68
63405;BME280;49541;57.840;12.306;2023-04-04T03:21:31;102069.19;;;1.56;66.08
63405;BME280;49541;57.840;12.306;2023-04-04T03:26:31;102063.84;;;1.59;65.18
63405;BME280;49541;57.840;12.306;2023-04-04T03:31:31;102057.13;;;1.13;67.53
63405;BME280;49541;57.840;12.306;2023-04-04T03:36:31;102048.41;;;1.12;68.24
63405;BME280;49541;57.840;12.306;2023-04-04T03:41:31;102048.47;;;1.09;69.00
63405;BME280;49541;57.840;12.306;2023-04-04T03:46:32;102045.78;;;1.12;68.71
63405;BME280;49541;57.840;12.306;2023-04-04T03:51:32;102043.09;;;0.78;69.60
63405;BME280;49541;57.840;12.306;2023-04-04T03:56:32;102047.06;;;0.94;69.81
63405;BME280;49541;57.840;12.306;2023-04-04T04:01:32;102045.75;;;0.76;69.77
63405;BME280;49541;57.840;12.306;2023-04-04T04:06:32;102046.91;;;1.02;69.40
63405;BME280;49541;57.840;12.306;2023-04-04T04:11:32;102044.91;;;1.46;68.49
63405;BME280;49541;57.840;12.306;2023-04-04T04:16:33;102050.16;;;1.46;67.75
63405;BME280;49541;57.840;12.306;2023-04-04T04:21:33;102042.41;;;1.41;68.47
63405;BME280;49541;57.840;12.306;2023-04-04T04:26:33;102034.00;;;1.29;68.57
63405;BME280;49541;57.840;12.306;2023-04-04T04:31:33;102039.50;;;1.18;69.14
63405;BME280;49541;57.840;12.306;2023-04-04T04:36:34;102046.94;;;1.00;69.17
63405;BME280;49541;57.840;12.306;2023-04-04T04:41:34;102035.41;;;1.08;68.66
63405;BME280;49541;57.840;12.306;2023-04-04T04:46:35;102037.13;;;1.43;67.60
63405;BME280;49541;57.840;12.306;2023-04-04T04:51:35;102037.38;;;1.34;67.69
63405;BME280;49541;57.840;12.306;2023-04-04T04:56:39;102049.97;;;1.55;67.32
63405;BME280;49541;57.840;12.306;2023-04-04T05:01:39;102045.16;;;1.71;66.77
63405;BME280;49541;57.840;12.306;2023-04-04T05:06:39;102038.78;;;1.47;67.35
63405;BME280;49541;57.840;12.306;2023-04-04T05:11:40;102037.00;;;1.49;67.32
63405;BME280;49541;57.840;12.306;2023-04-04T05:16:40;102034.63;;;1.73;66.84
63405;BME280;49541;57.840;12.306;2023-04-04T05:21:40;102038.06;;;1.75;67.54
63405;BME280;49541;57.840;12.306;2023-04-04T05:26:42;102039.88;;;1.73;68.14
63405;BME280;49541;57.840;12.306;2023-04-04T05:31:42;102043.97;;;1.83;67.86
63405;BME280;49541;57.840;12.306;2023-04-04T05:36:42;102035.66;;;1.66;68.58
63405;BME280;49541;57.840;12.306;2023-04-04T05:41:42;102038.88;;;1.77;68.41
63405;BME280;49541;57.840;12.306;2023-04-04T05:46:43;102024.94;;;2.06;67.88
63405;BME280;49541;57.840;12.306;2023-04-04T05:51:43;102029.44;;;2.02;68.10
63405;BME280;49541;57.840;12.306;2023-04-04T05:56:43;102033.69;;;2.07;68.25
63405;BME280;49541;57.840;12.306;2023-04-04T06:01:43;102030.28;;;2.03;68.80
63405;BME280;49541;57.840;12.306;2023-04-04T06:06:44;102027.69;;;2.01;69.28
63405;BME280;49541;57.840;12.306;2023-04-04T06:11:45;102027.34;;;2.14;69.68
63405;BME280;49541;57.840;12.306;2023-04-04T06:16:45;102020.16;;;2.50;68.80
63405;BME280;49541;57.840;12.306;2023-04-04T06:21:45;102030.38;;;2.59;68.97
63405;BME280;49541;57.840;12.306;2023-04-04T06:26:46;102026.97;;;2.56;69.55
63405;BME280;49541;57.840;12.306;2023-04-04T06:31:50;102026.28;;;2.79;69.66
63405;BME280;49541;57.840;12.306;2023-04-04T06:36:50;102022.19;;;2.97;69.44
63405;BME280;49541;57.840;12.306;2023-04-04T06:41:50;102020.16;;;3.05;69.43
63405;BME280;49541;57.840;12.306;2023-04-04T06:46:52;102017.31;;;3.13;69.37
63405;BME280;49541;57.840;12.306;2023-04-04T06:51:53;102014.50;;;3.17;67.55
63405;BME280;49541;57.840;12.306;2023-04-04T06:56:53;102022.53;;;3.14;68.51
63405;BME280;49541;57.840;12.306;2023-04-04T07:01:53;102020.91;;;3.10;69.82
63405;BME280;49541;57.840;12.306;2023-04-04T07:06:53;102020.38;;;3.25;69.06
63405;BME280;49541;57.840;12.306;2023-04-04T07:11:54;102020.59;;;3.19;68.65
63405;BME280;49541;57.840;12.306;2023-04-04T07:16:54;102010.75;;;3.24;68.23
63405;BME280;49541;57.840;12.306;2023-04-04T07:21:54;102013.84;;;3.37;69.45
63405;BME280;49541;57.840;12.306;2023-04-04T07:26:55;101998.72;;;3.93;67.99
63405;BME280;49541;57.840;12.306;2023-04-04T07:31:55;102001.91;;;4.02;65.87
63405;BME280;49541;57.840;12.306;2023-04-04T07:36:55;102001.13;;;4.46;64.94
63405;BME280;49541;57.840;12.306;2023-04-04T07:41:55;102003.16;;;4.16;62.95
63405;BME280;49541;57.840;12.306;2023-04-04T07:46:58;101997.25;;;4.55;64.85
63405;BME280;49541;57.840;12.306;2023-04-04T07:51:58;102004.44;;;4.51;64.06
63405;BME280;49541;57.840;12.306;2023-04-04T07:56:58;102001.72;;;4.97;64.23
63405;BME280;49541;57.840;12.306;2023-04-04T08:01:59;101998.28;;;4.95;62.94
63405;BME280;49541;57.840;12.306;2023-04-04T08:06:59;101995.06;;;5.30;62.51
63405;BME280;49541;57.840;12.306;2023-04-04T08:11:59;101991.34;;;5.96;61.81
63405;BME280;49541;57.840;12.306;2023-04-04T08:17:01;101991.50;;;6.12;60.41
63405;BME280;49541;57.840;12.306;2023-04-04T08:22:01;101986.06;;;6.72;59.20
63405;BME280;49541;57.840;12.306;2023-04-04T08:27:02;101984.50;;;6.49;59.06
63405;BME280;49541;57.840;12.306;2023-04-04T08:32:02;101991.16;;;6.20;62.02
63405;BME280;49541;57.840;12.306;2023-04-04T08:37:02;101980.72;;;6.35;62.53
63405;BME280;49541;57.840;12.306;2023-04-04T08:42:04;101981.22;;;6.25;61.75
63405;BME280;49541;57.840;12.306;2023-04-04T08:47:04;101977.00;;;6.59;63.30
63405;BME280;49541;57.840;12.306;2023-04-04T08:52:08;101971.88;;;7.77;60.33
63405;BME280;49541;57.840;12.306;2023-04-04T08:57:10;101979.97;;;7.92;58.61
63405;BME280;49541;57.840;12.306;2023-04-04T09:02:13;101964.66;;;7.64;58.77
63405;BME280;49541;57.840;12.306;2023-04-04T09:07:14;101976.34;;;7.93;57.86
63405;BME280;49541;57.840;12.306;2023-04-04T09:12:15;101978.16;;;7.92;59.10
63405;BME280;49541;57.840;12.306;2023-04-04T09:17:15;101972.91;;;8.24;59.14
63405;BME280;49541;57.840;12.306;2023-04-04T09:22:16;101981.91;;;8.53;58.14
63405;BME280;49541;57.840;12.306;2023-04-04T09:27:16;101974.78;;;8.54;57.88
63405;BME280;49541;57.840;12.306;2023-04-04T09:32:17;101970.44;;;8.37;57.81
63405;BME280;49541;57.840;12.306;2023-04-04T09:37:20;101966.69;;;8.41;57.34
63405;BME280;49541;57.840;12.306;2023-04-04T09:42:20;101974.03;;;8.68;56.83
63405;BME280;49541;57.840;12.306;2023-04-04T09:47:26;101963.78;;;8.92;53.02
63405;BME280;49541;57.840;12.306;2023-04-04T09:52:26;101964.25;;;9.45;51.96
63405;BME280;49541;57.840;12.306;2023-04-04T09:57:27;101972.59;;;9.96;49.94
63405;BME280;49541;57.840;12.306;2023-04-04T10:02:31;101973.34;;;10.41;47.67
63405;BME280;49541;57.840;12.306;2023-04-04T10:07:32;101962.31;;;10.47;47.45
63405;BME280;49541;57.840;12.306;2023-04-04T10:12:32;101963.88;;;10.64;44.47
63405;BME280;49541;57.840;12.306;2023-04-04T10:17:36;101951.94;;;10.97;43.66
63405;BME280;49541;57.840;12.306;2023-04-04T10:22:37;101952.88;;;11.23;42.24
63405;BME280;49541;57.840;12.306;2023-04-04T10:27:37;101942.44;;;11.45;40.55
63405;BME280;49541;57.840;12.306;2023-04-04T10:33:00;101943.81;;;12.02;39.24
63405;BME280;49541;57.840;12.306;2023-04-04T10:38:01;101946.22;;;12.55;38.10
63405;BME280;49541;57.840;12.306;2023-04-04T10:43:02;101938.84;;;12.94;37.82
63405;BME280;49541;57.840;12.306;2023-04-04T10:48:03;101941.84;;;13.49;36.46
63405;BME280;49541;57.840;12.306;2023-04-04T10:53:03;101940.41;;;13.21;35.77
63405;BME280;49541;57.840;12.306;2023-04-04T10:58:05;101941.31;;;13.44;34.57
63405;BME280;49541;57.840;12.306;2023-04-04T11:03:05;101938.19;;;13.61;33.43
63405;BME280;49541;57.840;12.306;2023-04-04T11:08:06;101934.69;;;13.83;33.94
63405;BME280;49541;57.840;12.306;2023-04-04T11:13:09;101927.25;;;14.09;32.12
63405;BME280;49541;57.840;12.306;2023-04-04T11:18:11;101916.47;;;14.32;32.14
63405;BME280;49541;57.840;12.306;2023-04-04T11:33:34;101901.66;;;15.34;29.04
63405;BME280;49541;57.840;12.306;2023-04-04T11:38:56;101906.13;;;15.76;29.66
63405;BME280;49541;57.840;12.306;2023-04-04T11:43:56;101892.66;;;15.14;28.98
63405;BME280;49541;57.840;12.306;2023-04-04T11:49:02;101893.88;;;15.83;29.70
63405;BME280;49541;57.840;12.306;2023-04-04T11:54:02;101901.94;;;16.72;28.63
63405;BME280;49541;57.840;12.306;2023-04-04T11:59:02;101896.72;;;16.90;28.61
63405;BME280;49541;57.840;12.306;2023-04-04T12:04:05;101886.88;;;17.18;27.72
63405;BME280;49541;57.840;12.306;2023-04-04T12:09:05;101872.06;;;17.52;27.38
63405;BME280;49541;57.840;12.306;2023-04-04T12:14:05;101881.75;;;18.10;27.27
63405;BME280;49541;57.840;12.306;2023-04-04T12:19:13;101886.91;;;18.39;27.06
63405;BME280;49541;57.840;12.306;2023-04-04T12:24:14;101886.09;;;18.74;26.17
63405;BME280;49541;57.840;12.306;2023-04-04T12:29:15;101876.97;;;19.72;25.57
63405;BME280;49541;57.840;12.306;2023-04-04T12:34:28;101876.53;;;19.24;25.71
63405;BME280;49541;57.840;12.306;2023-04-04T12:39:28;101867.13;;;19.02;26.05
63405;BME280;49541;57.840;12.306;2023-04-04T12:44:30;101859.22;;;19.69;25.71
63405;BME280;49541;57.840;12.306;2023-04-04T12:49:40;101873.88;;;20.01;24.75
63405;BME280;49541;57.840;12.306;2023-04-04T12:54:41;101864.00;;;19.75;25.51
63405;BME280;49541;57.840;12.306;2023-04-04T12:59:44;101856.69;;;20.10;25.58
63405;BME280;49541;57.840;12.306;2023-04-04T13:04:44;101857.50;;;19.94;25.66
63405;BME280;49541;57.840;12.306;2023-04-04T13:09:58;101851.44;;;20.00;25.23
63405;BME280;49541;57.840;12.306;2023-04-04T13:14:59;101855.75;;;19.51;26.32
63405;BME280;49541;57.840;12.306;2023-04-04T13:20:00;101850.56;;;19.65;25.91
63405;BME280;49541;57.840;12.306;2023-04-04T13:25:00;101844.38;;;20.16;26.11
63405;BME280;49541;57.840;12.306;2023-04-04T13:30:00;101840.50;;;20.51;24.93
63405;BME280;49541;57.840;12.306;2023-04-04T13:35:01;101846.63;;;20.78;24.79
63405;BME280;49541;57.840;12.306;2023-04-04T13:40:01;101840.88;;;20.89;24.60
63405;BME280;49541;57.840;12.306;2023-04-04T13:45:01;101836.28;;;20.98;23.27
63405;BME280;49541;57.840;12.306;2023-04-04T13:50:02;101833.59;;;20.98;23.55
63405;BME280;49541;57.840;12.306;2023-04-04T13:55:03;101824.09;;;21.02;23.71
63405;BME280;49541;57.840;12.306;2023-04-04T14:00:05;101839.06;;;21.37;23.29
63405;BME280;49541;57.840;12.306;2023-04-04T14:05:05;101837.94;;;21.79;22.31
63405;BME280;49541;57.840;12.306;2023-04-04T14:10:06;101839.22;;;22.46;21.88
63405;BME280;49541;57.840;12.306;2023-04-04T14:15:07;101845.31;;;22.48;22.30
63405;BME280;49541;57.840;12.306;2023-04-04T14:20:07;101843.19;;;22.58;22.35
63405;BME280;49541;57.840;12.306;2023-04-04T14:25:07;101835.94;;;22.74;22.39
63405;BME280;49541;57.840;12.306;2023-04-04T14:30:08;101834.03;;;23.12;21.79
63405;BME280;49541;57.840;12.306;2023-04-04T14:35:08;101822.63;;;23.02;21.41
63405;BME280;49541;57.840;12.306;2023-04-04T14:40:09;101826.88;;;22.81;21.95
63405;BME280;49541;57.840;12.306;2023-04-04T14:45:09;101825.88;;;22.36;22.15
63405;BME280;49541;57.840;12.306;2023-04-04T14:50:11;101821.34;;;22.05;22.64
63405;BME280;49541;57.840;12.306;2023-04-04T14:55:11;101823.16;;;21.82;22.78
63405;BME280;49541;57.840;12.306;2023-04-04T15:00:12;101817.56;;;22.38;22.57
63405;BME280;49541;57.840;12.306;2023-04-04T15:05:14;101816.59;;;22.54;22.55
63405;BME280;49541;57.840;12.306;2023-04-04T15:10:14;101825.84;;;22.44;21.80
63405;BME280;49541;57.840;12.306;2023-04-04T15:15:14;101820.75;;;22.64;22.50
63405;BME280;49541;57.840;12.306;2023-04-04T15:20:15;101818.97;;;22.34;22.06
63405;BME280;49541;57.840;12.306;2023-04-04T15:25:15;101807.22;;;22.56;22.04
63405;BME280;49541;57.840;12.306;2023-04-04T15:30:16;101806.34;;;23.02;22.13
63405;BME280;49541;57.840;12.306;2023-04-04T15:35:17;101814.38;;;23.10;21.90
63405;BME280;49541;57.840;12.306;2023-04-04T15:40:18;101806.59;;;23.51;21.66
63405;BME280;49541;57.840;12.306;2023-04-04T15:45:18;101801.44;;;21.90;23.23
63405;BME280;49541;57.840;12.306;2023-04-04T15:50:18;101802.78;;;20.00;25.09
63405;BME280;49541;57.840;12.306;2023-04-04T15:55:19;101807.09;;;18.64;26.53
63405;BME280;49541;57.840;12.306;2023-04-04T16:00:19;101800.28;;;18.96;26.87
63405;BME280;49541;57.840;12.306;2023-04-04T16:05:19;101800.88;;;18.63;27.67
63405;BME280;49541;57.840;12.306;2023-04-04T16:10:21;101799.66;;;17.76;29.08
63405;BME280;49541;57.840;12.306;2023-04-04T16:15:21;101802.69;;;17.08;29.47
63405;BME280;49541;57.840;12.306;2023-04-04T16:20:21;101798.78;;;17.30;28.62
63405;BME280;49541;57.840;12.306;2023-04-04T16:25:21;101803.16;;;16.84;29.13
63405;BME280;49541;57.840;12.306;2023-04-04T16:30:22;101798.66;;;16.36;29.57
63405;BME280;49541;57.840;12.306;2023-04-04T16:35:22;101795.25;;;16.05;29.74
63405;BME280;49541;57.840;12.306;2023-04-04T16:40:23;101792.50;;;15.35;31.16
63405;BME280;49541;57.840;12.306;2023-04-04T16:45:23;101792.72;;;15.22;30.69
63405;BME280;49541;57.840;12.306;2023-04-04T16:50:23;101795.50;;;15.11;30.86
63405;BME280;49541;57.840;12.306;2023-04-04T16:55:24;101796.94;;;15.15;31.41
63405;BME280;49541;57.840;12.306;2023-04-04T17:00:26;101790.28;;;15.40;31.63
63405;BME280;49541;57.840;12.306;2023-04-04T17:05:26;101786.69;;;15.30;31.45
63405;BME280;49541;57.840;12.306;2023-04-04T17:10:27;101785.94;;;15.59;31.08
63405;BME280;49541;57.840;12.306;2023-04-04T17:15:27;101789.31;;;15.51;30.54
63405;BME280;49541;57.840;12.306;2023-04-04T17:20:27;101783.66;;;16.14;29.43
63405;BME280;49541;57.840;12.306;2023-04-04T17:25:28;101776.13;;;15.79;29.41
63405;BME280;49541;57.840;12.306;2023-04-04T17:30:30;101767.22;;;15.38;30.79
63405;BME280;49541;57.840;12.306;2023-04-04T17:35:30;101758.84;;;15.21;30.28
63405;BME280;49541;57.840;12.306;2023-04-04T17:40:30;101760.97;;;14.97;30.89
63405;BME280;49541;57.840;12.306;2023-04-04T17:45:30;101768.91;;;14.56;31.92
63405;BME280;49541;57.840;12.306;2023-04-04T17:50:31;101765.94;;;14.38;31.72
63405;BME280;49541;57.840;12.306;2023-04-04T17:55:31;101769.00;;;14.33;31.66
63405;BME280;49541;57.840;12.306;2023-04-04T18:00:31;101770.59;;;14.04;31.92
63405;BME280;49541;57.840;12.306;2023-04-04T18:05:32;101775.22;;;13.36;33.92
63405;BME280;49541;57.840;12.306;2023-04-04T18:10:32;101775.38;;;13.34;35.00
63405;BME280;49541;57.840;12.306;2023-04-04T18:15:32;101785.69;;;12.58;37.08
63405;BME280;49541;57.840;12.306;2023-04-04T18:20:35;101767.41;;;12.41;37.16
63405;BME280;49541;57.840;12.306;2023-04-04T18:25:35;101782.22;;;12.09;38.00
63405;BME280;49541;57.840;12.306;2023-04-04T18:30:36;101784.31;;;12.17;37.79
63405;BME280;49541;57.840;12.306;2023-04-04T18:35:37;101785.50;;;11.89;37.79
63405;BME280;49541;57.840;12.306;2023-04-04T18:40:37;101784.53;;;11.53;39.00
63405;BME280;49541;57.840;12.306;2023-04-04T18:45:38;101784.69;;;11.26;40.39
63405;BME280;49541;57.840;12.306;2023-04-04T18:50:41;101785.69;;;10.99;41.99
63405;BME280;49541;57.840;12.306;2023-04-04T18:55:41;101788.22;;;11.01;41.66
63405;BME280;49541;57.840;12.306;2023-04-04T19:00:41;101785.78;;;10.85;42.79
63405;BME280;49541;57.840;12.306;2023-04-04T19:05:42;101789.72;;;10.92;41.42
63405;BME280;49541;57.840;12.306;2023-04-04T19:10:46;101793.53;;;10.50;42.72
63405;BME280;49541;57.840;12.306;2023-04-04T19:15:47;101784.88;;;10.19;42.81
63405;BME280;49541;57.840;12.306;2023-04-04T19:20:48;101787.56;;;9.92;43.94
63405;BME280;49541;57.840;12.306;2023-04-04T19:25:48;101791.75;;;9.81;44.74
63405;BME280;49541;57.840;12.306;2023-04-04T19:30:50;101794.59;;;9.78;44.49
63405;BME280;49541;57.840;12.306;2023-04-04T19:35:54;101797.22;;;9.51;44.13
63405;BME280;49541;57.840;12.306;2023-04-04T19:40:55;101788.88;;;9.29;45.86
63405;BME280;49541;57.840;12.306;2023-04-04T19:45:57;101790.66;;;9.14;45.79
63405;BME280;49541;57.840;12.306;2023-04-04T19:50:58;101792.97;;;9.06;45.75
63405;BME280;49541;57.840;12.306;2023-04-04T19:55:58;101795.59;;;8.91;46.11
63405;BME280;49541;57.840;12.306;2023-04-04T20:00:59;101794.31;;;8.38;46.73
63405;BME280;49541;57.840;12.306;2023-04-04T20:06:13;101786.81;;;8.14;47.21
63405;BME280;49541;57.840;12.306;2023-04-04T20:11:19;101787.13;;;7.94;47.72
63405;BME280;49541;57.840;12.306;2023-04-04T20:16:20;101784.03;;;7.54;48.38
63405;BME280;49541;57.840;12.306;2023-04-04T20:21:21;101781.13;;;7.43;49.65
63405;BME280;49541;57.840;12.306;2023-04-04T20:36:53;101787.34;;;7.26;50.99
63405;BME280;49541;57.840;12.306;2023-04-04T20:41:53;101790.34;;;7.35;50.98
63405;BME280;49541;57.840;12.306;2023-04-04T20:46:54;101786.03;;;7.17;51.02
63405;BME280;49541;57.840;12.306;2023-04-04T20:51:55;101790.84;;;6.93;51.34
63405;BME280;49541;57.840;12.306;2023-04-04T20:56:55;101794.25;;;6.08;53.24
63405;BME280;49541;57.840;12.306;2023-04-04T21:02:12;101794.97;;;6.29;52.75
63405;BME280;49541;57.840;12.306;2023-04-04T21:07:33;101799.06;;;6.17;52.80
63405;BME280;49541;57.840;12.306;2023-04-04T21:12:34;101796.75;;;5.92;53.64
63405;BME280;49541;57.840;12.306;2023-04-04T21:17:35;101807.13;;;5.78;54.45
63405;BME280;49541;57.840;12.306;2023-04-04T21:22:36;101811.56;;;5.77;54.85
63405;BME280;49541;57.840;12.306;2023-04-04T21:27:36;101816.06;;;5.75;55.18
63405;BME280;49541;57.840;12.306;2023-04-04T21:32:36;101812.69;;;5.71;55.16
63405;BME280;49541;57.840;12.306;2023-04-04T21:37:36;101811.63;;;5.57;55.69
63405;BME280;49541;57.840;12.306;2023-04-04T21:42:37;101808.84;;;5.60;55.71
63405;BME280;49541;57.840;12.306;2023-04-04T21:47:37;101818.13;;;5.87;55.54
63405;BME280;49541;57.840;12.306;2023-04-04T21:52:42;101806.59;;;5.88;55.02
63405;BME280;49541;57.840;12.306;2023-04-04T21:57:43;101815.03;;;5.59;55.92
63405;BME280;49541;57.840;12.306;2023-04-04T22:02:43;101811.41;;;5.61;55.38
63405;BME280;49541;57.840;12.306;2023-04-04T22:07:43;101808.69;;;5.82;54.67
63405;BME280;49541;57.840;12.306;2023-04-04T22:12:44;101809.06;;;5.55;55.46
63405;BME280;49541;57.840;12.306;2023-04-04T22:17:45;101801.41;;;5.49;55.92
63405;BME280;49541;57.840;12.306;2023-04-04T22:22:50;101801.81;;;5.40;56.12
63405;BME280;49541;57.840;12.306;2023-04-04T22:27:50;101798.13;;;5.63;56.02
63405;BME280;49541;57.840;12.306;2023-04-04T22:32:51;101793.41;;;5.69;55.83
63405;BME280;49541;57.840;12.306;2023-04-04T22:37:51;101800.97;;;5.58;55.88
63405;BME280;49541;57.840;12.306;2023-04-04T22:42:53;101790.84;;;5.49;56.98
63405;BME280;49541;57.840;12.306;2023-04-04T22:47:54;101783.25;;;5.22;57.43
63405;BME280;49541;57.840;12.306;2023-04-04T22:52:56;101782.00;;;4.91;58.64
63405;BME280;49541;57.840;12.306;2023-04-04T22:57:57;101768.25;;;5.04;58.72
63405;BME280;49541;57.840;12.306;2023-04-04T23:02:57;101769.72;;;4.90;59.01
63405;BME280;49541;57.840;12.306;2023-04-04T23:08:00;101775.16;;;4.67;59.02
63405;BME280;49541;57.840;12.306;2023-04-04T23:13:01;101762.75;;;4.48;59.60
63405;BME280;49541;57.840;12.306;2023-04-04T23:18:01;101765.25;;;4.72;59.19
63405;BME280;49541;57.840;12.306;2023-04-04T23:23:02;101768.75;;;4.52;59.61
63405;BME280;49541;57.840;12.306;2023-04-04T23:28:02;101761.16;;;4.65;59.15
63405;BME280;49541;57.840;12.306;2023-04-04T23:33:05;101763.94;;;4.41;59.59
63405;BME280;49541;57.840;12.306;2023-04-04T23:38:05;101766.97;;;4.53;59.41
63405;BME280;49541;57.840;12.306;2023-04-04T23:43:05;101773.56;;;4.63;59.11
63405;BME280;49541;57.840;12.306;2023-04-04T23:48:05;101773.16;;;4.72;59.09
63405;BME280;49541;57.840;12.306;2023-04-04T23:53:06;101758.91;;;4.56;59.22
63405;BME280;49541;57.840;12.306;2023-04-04T23:58:06;101761.09;;;4.66;59.23
